Time;durP1;ratioP1;P1;durP2;ratioP2;P2;SDS_P1;SDS_P2;PMS_P1;PMS_P2;Temp;Humidity;BMP_temperature;BMP_pressure;BME280_temperature;BME280_humidity;BME280_pressure;Samples;Min_cycle;Max_cycle;Signal;HPM_P1;HPM_P2
2023/07/30 00:01:41;;;;;;;40.60;9.38;;;16.50;93.30;;;;;;5092697;28;20127;-76
2023/07/30 00:04:07;;;;;;;33.53;9.98;;;16.50;93.50;;;;;;5092653;28;20040;-77
2023/07/30 00:06:33;;;;;;;33.95;9.75;;;16.50;93.60;;;;;;5075199;28;20143;-77
2023/07/30 00:08:58;;;;;;;29.23;10.30;;;16.50;94.10;;;;;;5092151;28;20044;-76
2023/07/30 00:11:24;;;;;;;35.47;9.65;;;16.40;94.00;;;;;;5075058;28;20504;-76
2023/07/30 00:13:50;;;;;;;29.50;9.38;;;16.40;94.20;;;;;;5074807;28;20071;-77
2023/07/30 00:16:16;;;;;;;25.35;8.88;;;16.40;93.70;;;;;;5091857;28;20044;-76
2023/07/30 00:18:42;;;;;;;27.70;9.57;;;16.40;93.70;;;;;;5091692;28;20040;-76
2023/07/30 00:21:07;;;;;;;31.63;10.00;;;16.40;94.30;;;;;;5058493;28;20122;-76
2023/07/30 00:23:33;;;;;;;36.10;10.25;;;16.40;94.90;;;;;;5074904;28;20396;-77
2023/07/30 00:25:59;;;;;;;33.78;10.05;;;16.40;94.90;;;;;;5058498;28;20036;-77
2023/07/30 00:28:24;;;;;;;42.55;10.82;;;16.40;94.60;;;;;;5075074;28;20143;-77
2023/07/30 00:30:50;;;;;;;29.80;11.30;;;16.40;94.30;;;;;;5093997;28;20036;-76
2023/07/30 00:33:16;;;;;;;32.97;10.57;;;16.50;94.70;;;;;;5079231;28;20075;-77
2023/07/30 00:35:41;;;;;;;31.98;10.02;;;16.50;94.70;;;;;;5062137;28;20142;-77
2023/07/30 00:38:07;;;;;;;34.17;10.57;;;16.50;94.60;;;;;;5095627;28;20040;-77
2023/07/30 00:40:33;;;;;;;36.35;10.52;;;16.50;94.90;;;;;;5095708;28;20114;-76
2023/07/30 00:42:58;;;;;;;35.08;9.73;;;16.50;95.00;;;;;;5096034;28;20100;-77
2023/07/30 00:45:24;;;;;;;33.38;9.88;;;16.60;95.00;;;;;;5061997;28;20040;-76
2023/07/30 00:47:50;;;;;;;33.42;10.88;;;16.60;94.70;;;;;;5095789;28;20032;-76
2023/07/30 00:50:16;;;;;;;37.63;10.90;;;16.70;94.60;;;;;;5095720;28;20547;-76
2023/07/30 00:52:43;;;;;;;27.90;10.15;;;16.70;94.50;;;;;;5078702;28;20093;-77
2023/07/30 00:55:10;;;;;;;39.25;11.38;;;16.70;94.80;;;;;;5078636;28;20040;-76
2023/07/30 00:57:37;;;;;;;29.58;9.98;;;16.70;95.00;;;;;;5078531;28;20044;-77
2023/07/30 01:00:08;;;;;;;35.60;9.63;;;16.70;94.60;;;;;;5095636;28;20044;-76
2023/07/30 01:02:37;;;;;;;40.78;10.25;;;16.70;94.50;;;;;;5062776;28;20032;-77
2023/07/30 01:05:06;;;;;;;33.47;9.27;;;16.70;95.20;;;;;;5078325;28;20488;-76
2023/07/30 01:07:32;;;;;;;34.38;8.90;;;16.70;94.90;;;;;;5095289;28;20047;-76
2023/07/30 01:09:59;;;;;;;38.60;9.98;;;16.80;94.90;;;;;;5078325;28;20048;-77
2023/07/30 01:12:26;;;;;;;33.40;9.77;;;16.80;95.00;;;;;;5095207;28;20040;-76
2023/07/30 01:14:54;;;;;;;33.58;9.13;;;16.90;94.60;;;;;;5094830;28;20055;-76
2023/07/30 01:17:21;;;;;;;39.50;9.10;;;16.90;95.10;;;;;;5078117;28;20404;-76
2023/07/30 01:19:47;;;;;;;37.42;9.98;;;17.00;95.10;;;;;;5078297;28;20436;-77
2023/07/30 01:22:12;;;;;;;32.58;10.18;;;17.00;95.20;;;;;;5094958;28;20047;-77
2023/07/30 01:24:38;;;;;;;28.90;10.07;;;17.00;95.30;;;;;;5095195;28;20040;-76
2023/07/30 01:27:22;;;;;;;29.65;7.85;;;17.10;95.20;;;;;;5061442;28;20090;-76
2023/07/30 01:30:27;;;;;;;24.63;7.70;;;17.20;95.00;;;;;;5078126;28;20040;-76
2023/07/30 01:32:54;;;;;;;27.20;8.95;;;17.20;94.80;;;;;;5071501;28;20086;-76
2023/07/30 01:35:27;;;;;;;37.70;9.70;;;17.20;95.00;;;;;;5094610;28;20481;-77
2023/07/30 01:37:53;;;;;;;27.90;8.85;;;17.20;95.10;;;;;;5094683;28;20036;-76
2023/07/30 01:40:20;;;;;;;27.25;8.85;;;17.10;94.90;;;;;;5044475;28;20094;-76
2023/07/30 01:42:46;;;;;;;35.25;8.75;;;17.10;94.90;;;;;;5076927;28;20499;-76
2023/07/30 01:45:12;;;;;;;27.88;8.65;;;17.10;94.90;;;;;;5061019;28;20040;-77
2023/07/30 01:47:37;;;;;;;38.10;8.70;;;17.10;94.80;;;;;;5094495;28;20081;-76
2023/07/30 01:50:03;;;;;;;33.08;9.43;;;17.00;94.80;;;;;;5077463;28;20043;-77
2023/07/30 01:52:29;;;;;;;38.65;9.18;;;17.00;94.90;;;;;;5094365;28;20047;-77
2023/07/30 01:54:56;;;;;;;23.00;7.80;;;17.10;94.80;;;;;;5094299;28;20036;-76
2023/07/30 01:57:21;;;;;;;24.80;7.40;;;17.00;94.70;;;;;;5060971;28;20097;-77
2023/07/30 01:59:47;;;;;;;27.50;9.30;;;17.10;94.60;;;;;;5077408;28;20119;-76
2023/07/30 02:02:13;;;;;;;35.65;8.20;;;17.00;94.70;;;;;;5061032;28;20054;-76
2023/07/30 02:04:39;;;;;;;31.27;8.73;;;17.00;94.70;;;;;;5077273;28;20040;-76
2023/07/30 02:07:04;;;;;;;28.10;8.43;;;17.00;94.60;;;;;;5094037;28;20130;-77
2023/07/30 02:09:30;;;;;;;35.15;8.73;;;17.00;94.60;;;;;;5060450;28;20043;-76
2023/07/30 02:11:56;;;;;;;30.10;7.82;;;17.00;94.70;;;;;;5060471;28;20050;-76
2023/07/30 02:14:21;;;;;;;35.33;8.50;;;17.00;94.60;;;;;;5076877;28;20048;-76
2023/07/30 02:16:47;;;;;;;24.05;8.45;;;16.90;94.70;;;;;;5077089;28;20040;-76
2023/07/30 02:19:13;;;;;;;29.67;8.93;;;16.90;94.90;;;;;;5060243;28;20042;-76
2023/07/30 02:21:42;;;;;;;30.83;7.47;;;16.90;94.70;;;;;;5060333;28;20036;-77
2023/07/30 02:24:11;;;;;;;22.63;8.57;;;16.90;94.60;;;;;;5077700;28;20048;-77
2023/07/30 02:26:37;;;;;;;35.85;9.60;;;16.80;94.80;;;;;;5076838;28;20131;-76
2023/07/30 02:29:02;;;;;;;31.23;8.68;;;16.80;95.00;;;;;;5060080;28;20078;-76
2023/07/30 02:31:28;;;;;;;32.60;8.35;;;16.80;95.00;;;;;;5060131;28;20072;-76
2023/07/30 02:33:54;;;;;;;32.13;8.60;;;16.80;95.10;;;;;;5076832;28;20050;-76
2023/07/30 02:36:20;;;;;;;29.25;8.43;;;16.70;95.20;;;;;;5076616;28;20036;-77
2023/07/30 02:38:45;;;;;;;27.55;8.25;;;16.70;95.20;;;;;;5059906;28;20096;-76
2023/07/30 02:41:11;;;;;;;28.23;7.80;;;16.70;95.10;;;;;;5059999;28;20043;-76
2023/07/30 02:43:37;;;;;;;22.98;7.10;;;16.70;94.90;;;;;;5093355;28;20044;-77
2023/07/30 02:46:02;;;;;;;29.17;7.55;;;16.60;95.00;;;;;;5076730;28;20109;-76
2023/07/30 02:48:28;;;;;;;29.02;8.00;;;16.60;95.10;;;;;;5076339;28;20499;-77
2023/07/30 02:50:54;;;;;;;29.23;7.95;;;16.50;95.10;;;;;;5043054;28;20040;-77
2023/07/30 02:53:19;;;;;;;31.08;8.13;;;16.60;95.10;;;;;;5075428;28;20051;-76
2023/07/30 02:55:45;;;;;;;28.55;8.57;;;16.50;95.00;;;;;;5092776;28;20051;-76
2023/07/30 02:58:11;;;;;;;20.20;6.65;;;16.50;95.00;;;;;;5076455;28;20130;-77
2023/07/30 03:00:36;;;;;;;29.58;8.23;;;16.50;95.00;;;;;;5059941;28;20098;-76
2023/07/30 03:03:03;;;;;;;23.75;7.20;;;16.50;94.90;;;;;;5092992;28;20032;-76
2023/07/30 03:05:29;;;;;;;27.73;6.90;;;16.50;94.80;;;;;;5093174;28;20122;-77
2023/07/30 03:07:54;;;;;;;29.60;7.25;;;16.50;94.80;;;;;;5075962;28;20079;-77
2023/07/30 03:10:20;;;;;;;26.60;7.13;;;16.50;94.80;;;;;;5075990;28;20048;-77
2023/07/30 03:12:46;;;;;;;21.63;6.00;;;16.50;94.70;;;;;;5075934;28;20127;-76
2023/07/30 03:15:11;;;;;;;24.60;7.22;;;16.50;94.60;;;;;;5075738;28;20048;-76
2023/07/30 03:17:37;;;;;;;24.77;7.43;;;16.50;94.60;;;;;;5075812;28;20050;-77
2023/07/30 03:20:04;;;;;;;26.27;6.78;;;16.50;94.50;;;;;;5059078;28;20036;-77
2023/07/30 03:22:30;;;;;;;22.17;5.88;;;16.40;94.50;;;;;;5059453;28;20042;-76
2023/07/30 03:24:55;;;;;;;23.23;6.22;;;16.50;94.40;;;;;;5075762;28;20476;-76
2023/07/30 03:27:21;;;;;;;27.17;6.40;;;16.40;94.40;;;;;;5075697;28;20097;-77
2023/07/30 03:29:47;;;;;;;17.30;6.32;;;16.40;94.30;;;;;;5092457;28;20047;-77
2023/07/30 03:32:13;;;;;;;23.25;6.65;;;16.50;94.20;;;;;;5075922;28;20043;-76
2023/07/30 03:34:38;;;;;;;21.75;5.32;;;16.40;94.10;;;;;;5092305;28;20385;-77
2023/07/30 03:37:04;;;;;;;25.58;6.70;;;16.40;94.20;;;;;;5092364;28;20042;-77
2023/07/30 03:39:30;;;;;;;17.13;5.20;;;16.50;94.00;;;;;;5075290;28;20077;-77
2023/07/30 03:41:55;;;;;;;19.42;5.88;;;16.40;94.00;;;;;;5057972;28;20058;-77
2023/07/30 03:44:21;;;;;;;22.73;6.40;;;16.40;93.90;;;;;;5058200;28;20150;-77
2023/07/30 03:46:47;;;;;;;17.40;5.40;;;16.40;93.90;;;;;;5074853;28;20036;-77
2023/07/30 03:49:12;;;;;;;16.15;5.75;;;16.40;93.70;;;;;;5074565;28;20062;-77
2023/07/30 03:51:38;;;;;;;17.92;4.65;;;16.30;93.70;;;;;;5058110;28;20039;-76
2023/07/30 03:54:04;;;;;;;26.67;6.05;;;16.40;93.60;;;;;;5074771;28;20181;-76
2023/07/30 03:56:30;;;;;;;17.73;5.05;;;16.30;93.30;;;;;;5074724;28;20480;-76
2023/07/30 03:58:56;;;;;;;21.58;4.93;;;16.40;93.30;;;;;;5041487;28;20075;-76
2023/07/30 04:01:22;;;;;;;14.68;4.82;;;16.40;93.10;;;;;;5075366;28;20043;-77
2023/07/30 04:03:47;;;;;;;16.48;4.43;;;16.40;93.00;;;;;;5091893;28;20525;-76
2023/07/30 04:06:13;;;;;;;15.18;4.63;;;16.30;92.50;;;;;;5091822;28;20040;-76
2023/07/30 04:08:39;;;;;;;12.13;3.67;;;16.30;92.60;;;;;;5091864;28;20040;-76
2023/07/30 04:11:04;;;;;;;16.88;4.78;;;16.40;92.80;;;;;;5075372;28;20366;-77
2023/07/30 04:13:30;;;;;;;13.10;3.88;;;16.40;92.30;;;;;;5074951;28;20480;-76
2023/07/30 04:15:57;;;;;;;14.63;3.90;;;16.30;92.40;;;;;;5075085;28;20044;-76
2023/07/30 04:18:23;;;;;;;15.55;3.72;;;16.40;92.50;;;;;;5058205;28;20093;-76
2023/07/30 04:20:48;;;;;;;10.60;3.17;;;16.40;92.00;;;;;;5092140;28;20032;-76
2023/07/30 04:23:14;;;;;;;13.57;3.38;;;16.40;92.00;;;;;;5091695;28;20176;-77
2023/07/30 04:25:40;;;;;;;11.02;2.55;;;16.40;91.50;;;;;;5075169;28;20063;-76
2023/07/30 04:28:06;;;;;;;11.18;3.20;;;16.40;91.60;;;;;;5091662;28;20487;-76
2023/07/30 04:30:32;;;;;;;12.65;3.70;;;16.30;91.20;;;;;;5058241;28;20040;-77
2023/07/30 04:32:58;;;;;;;9.65;2.75;;;16.40;91.30;;;;;;5075248;28;20040;-76
2023/07/30 04:35:23;;;;;;;10.52;3.72;;;16.40;90.80;;;;;;5074722;28;20477;-76
2023/07/30 04:37:49;;;;;;;13.65;2.70;;;16.40;90.90;;;;;;5058250;28;20042;-76
2023/07/30 04:40:15;;;;;;;9.30;3.28;;;16.40;90.70;;;;;;5091507;28;20039;-76
2023/07/30 04:42:41;;;;;;;11.43;3.40;;;16.40;90.10;;;;;;5058453;28;20121;-77
2023/07/30 04:45:07;;;;;;;17.15;3.83;;;16.40;90.20;;;;;;5058067;28;20515;-77
2023/07/30 04:47:32;;;;;;;10.88;2.67;;;16.40;90.30;;;;;;5091485;28;20052;-77
2023/07/30 04:49:58;;;;;;;13.85;3.35;;;16.40;90.00;;;;;;5074729;28;20110;-76
2023/07/30 04:52:24;;;;;;;13.18;3.45;;;16.40;90.00;;;;;;5074975;28;20126;-77
2023/07/30 04:54:49;;;;;;;14.88;3.40;;;16.50;89.80;;;;;;5057974;28;20097;-76
2023/07/30 04:57:15;;;;;;;13.13;3.45;;;16.50;89.60;;;;;;5091687;28;20124;-76
2023/07/30 04:59:41;;;;;;;12.05;2.95;;;16.60;89.40;;;;;;5091869;28;20040;-76
2023/07/30 05:02:07;;;;;;;9.15;2.55;;;16.50;88.50;;;;;;5074679;28;20484;-76
2023/07/30 05:04:32;;;;;;;13.52;3.05;;;16.60;88.70;;;;;;5091862;28;20036;-75
2023/07/30 05:06:58;;;;;;;11.40;3.00;;;16.70;88.40;;;;;;5091587;28;20531;-76
2023/07/30 05:09:24;;;;;;;10.23;2.90;;;16.70;88.10;;;;;;5091785;28;20040;-76
2023/07/30 05:11:50;;;;;;;13.25;2.85;;;16.70;88.10;;;;;;5074472;28;20035;-76
2023/07/30 05:14:15;;;;;;;7.80;2.72;;;16.70;87.50;;;;;;5074245;28;20101;-77
2023/07/30 05:16:41;;;;;;;10.80;3.35;;;16.80;87.90;;;;;;5041513;28;20036;-77
2023/07/30 05:19:08;;;;;;;13.73;2.75;;;16.90;87.50;;;;;;5078215;28;20044;-76
2023/07/30 05:21:33;;;;;;;9.57;2.90;;;16.80;86.60;;;;;;5078494;28;20040;-76
2023/07/30 05:23:59;;;;;;;11.20;2.95;;;16.90;86.80;;;;;;5078461;28;20062;-76
2023/07/30 05:26:25;;;;;;;9.98;2.70;;;16.90;86.00;;;;;;5095653;28;20040;-77
2023/07/30 05:28:50;;;;;;;11.93;2.88;;;16.90;86.60;;;;;;5078238;28;20043;-76
2023/07/30 05:31:16;;;;;;;11.70;2.95;;;17.00;86.70;;;;;;5095929;28;20046;-75
2023/07/30 05:33:42;;;;;;;9.00;2.58;;;17.00;86.40;;;;;;5095506;28;20040;-76
2023/07/30 05:36:08;;;;;;;5.63;1.92;;;17.00;86.30;;;;;;5045988;28;20089;-76
2023/07/30 05:38:33;;;;;;;12.82;2.78;;;17.00;86.10;;;;;;5079812;28;20043;-75
2023/07/30 05:40:59;;;;;;;12.65;2.35;;;17.00;85.90;;;;;;5079133;28;20032;-76
2023/07/30 05:43:25;;;;;;;8.15;2.40;;;17.00;85.80;;;;;;5096046;28;20138;-76
2023/07/30 05:45:50;;;;;;;12.10;3.03;;;17.10;85.30;;;;;;5078114;28;20086;-77
2023/07/30 05:48:16;;;;;;;9.65;2.42;;;17.10;85.60;;;;;;5077719;28;20048;-76
2023/07/30 05:50:42;;;;;;;10.20;2.65;;;17.10;85.50;;;;;;5061070;28;20044;-76
2023/07/30 05:53:07;;;;;;;8.75;3.42;;;17.20;85.20;;;;;;5061205;28;20092;-77
2023/07/30 05:55:33;;;;;;;11.32;2.78;;;17.10;85.20;;;;;;5044297;28;20045;-76
2023/07/30 05:57:59;;;;;;;12.65;4.13;;;17.20;85.20;;;;;;5077567;28;20119;-76
2023/07/30 06:00:24;;;;;;;15.07;3.25;;;17.30;84.80;;;;;;5060835;28;20043;-77
2023/07/30 06:02:50;;;;;;;13.98;3.92;;;17.20;85.00;;;;;;5077773;28;20127;-77
2023/07/30 06:05:16;;;;;;;11.32;3.15;;;17.30;84.90;;;;;;5077467;28;20040;-77
2023/07/30 06:07:41;;;;;;;12.57;2.70;;;17.40;84.80;;;;;;5077722;28;20043;-76
2023/07/30 06:10:07;;;;;;;13.73;3.25;;;17.40;84.90;;;;;;5094569;28;20463;-76
2023/07/30 06:12:33;;;;;;;12.85;2.95;;;17.40;85.10;;;;;;5077646;28;20065;-77
2023/07/30 06:14:59;;;;;;;11.73;3.42;;;17.30;85.10;;;;;;5093751;28;20405;-77
2023/07/30 06:17:25;;;;;;;10.73;2.80;;;17.40;84.50;;;;;;5060499;28;20051;-76
2023/07/30 06:19:50;;;;;;;12.38;3.00;;;17.40;84.70;;;;;;5077107;28;20047;-76
2023/07/30 06:22:16;;;;;;;19.05;4.35;;;17.40;84.50;;;;;;5093899;28;20040;-76
2023/07/30 06:24:42;;;;;;;11.23;3.83;;;17.40;84.20;;;;;;5060446;28;20043;-77
2023/07/30 06:27:09;;;;;;;12.32;3.05;;;17.40;84.00;;;;;;5077266;28;20046;-76
2023/07/30 06:29:35;;;;;;;14.30;3.58;;;17.50;84.00;;;;;;5077221;28;20115;-77
2023/07/30 06:32:01;;;;;;;15.15;4.47;;;17.50;83.70;;;;;;5077154;28;20035;-76
2023/07/30 06:34:27;;;;;;;10.70;3.10;;;17.50;82.30;;;;;;5093666;28;20552;-77
2023/07/30 06:36:52;;;;;;;13.38;3.60;;;17.50;82.10;;;;;;5077045;28;20047;-76
2023/07/30 06:39:18;;;;;;;10.77;2.45;;;17.60;82.40;;;;;;5076713;28;20419;-77
2023/07/30 06:41:44;;;;;;;12.23;3.58;;;17.70;80.90;;;;;;5093576;28;20032;-76
2023/07/30 06:44:10;;;;;;;12.48;3.70;;;17.70;81.00;;;;;;5093676;28;20036;-78
2023/07/30 06:46:35;;;;;;;13.55;3.20;;;17.90;80.40;;;;;;5093608;28;20044;-77
2023/07/30 06:49:01;;;;;;;15.25;3.38;;;17.90;80.30;;;;;;5076637;28;20146;-81
2023/07/30 06:51:27;;;;;;;15.02;3.58;;;18.00;79.80;;;;;;5076519;28;20054;-77
2023/07/30 06:53:53;;;;;;;12.45;3.75;;;18.10;79.70;;;;;;5093282;28;20043;-77
2023/07/30 06:56:18;;;;;;;11.38;3.17;;;18.20;79.00;;;;;;5093274;28;20046;-77
2023/07/30 06:58:44;;;;;;;11.18;3.40;;;18.20;79.70;;;;;;5059956;28;20040;-78
2023/07/30 07:01:10;;;;;;;15.20;3.30;;;18.20;78.50;;;;;;5093175;28;20534;-77
2023/07/30 07:03:35;;;;;;;7.63;2.67;;;18.30;78.80;;;;;;5059928;28;20047;-78
2023/07/30 07:06:01;;;;;;;12.65;3.13;;;18.40;77.80;;;;;;5059632;28;20415;-78
2023/07/30 07:08:27;;;;;;;13.25;2.90;;;18.50;77.40;;;;;;5059561;28;20043;-79
2023/07/30 07:10:53;;;;;;;9.35;3.40;;;18.60;76.00;;;;;;5076560;28;20144;-77
2023/07/30 07:13:18;;;;;;;12.43;4.00;;;18.70;75.40;;;;;;5093290;28;20039;-78
2023/07/30 07:15:45;;;;;;;9.48;2.63;;;18.60;75.60;;;;;;5075841;28;20114;-78
2023/07/30 07:18:11;;;;;;;13.50;3.05;;;18.60;74.20;;;;;;5092821;28;20040;-77
2023/07/30 07:20:37;;;;;;;13.65;3.40;;;18.60;74.70;;;;;;5092825;28;20594;-78
2023/07/30 07:23:03;;;;;;;12.55;2.83;;;18.50;74.60;;;;;;5076231;28;20426;-78
2023/07/30 07:25:29;;;;;;;21.00;4.20;;;18.50;75.20;;;;;;5092743;28;20082;-76
2023/07/30 07:27:55;;;;;;;11.52;2.80;;;18.50;74.80;;;;;;5092916;28;20051;-77
2023/07/30 07:30:21;;;;;;;10.73;2.50;;;18.50;74.60;;;;;;5075751;28;20485;-76
2023/07/30 07:32:50;;;;;;;11.73;3.20;;;18.50;75.40;;;;;;5059235;28;20047;-78
2023/07/30 07:35:18;;;;;;;12.68;2.95;;;18.50;75.30;;;;;;5059412;28;20044;-77
2023/07/30 07:37:44;;;;;;;13.68;3.28;;;18.40;75.30;;;;;;5076123;28;20051;-77
2023/07/30 07:40:09;;;;;;;15.48;3.45;;;18.30;75.70;;;;;;5074998;28;20032;-77
2023/07/30 07:42:36;;;;;;;9.65;2.67;;;18.30;75.90;;;;;;5092794;28;20036;-78
2023/07/30 07:45:01;;;;;;;16.45;3.70;;;18.20;76.50;;;;;;5075911;28;20062;-77
2023/07/30 07:47:27;;;;;;;9.70;2.47;;;18.20;77.00;;;;;;5058832;28;20036;-77
2023/07/30 07:49:53;;;;;;;14.60;3.38;;;18.20;76.70;;;;;;5075621;28;20054;-77
2023/07/30 07:52:20;;;;;;;14.05;3.45;;;18.20;76.20;;;;;;5058817;28;20040;-78
2023/07/30 07:54:46;;;;;;;14.75;3.38;;;18.30;76.40;;;;;;5059003;28;20093;-77
2023/07/30 07:57:11;;;;;;;14.90;3.58;;;18.30;76.90;;;;;;5075594;28;20032;-77
2023/07/30 07:59:37;;;;;;;9.02;3.15;;;18.40;76.20;;;;;;5058863;28;20173;-78
2023/07/30 08:02:03;;;;;;;8.35;2.60;;;18.40;75.90;;;;;;5075501;28;20193;-78
2023/07/30 08:04:29;;;;;;;12.70;2.85;;;18.40;76.10;;;;;;5058746;28;20048;-77
2023/07/30 08:06:55;;;;;;;13.38;3.60;;;18.50;75.90;;;;;;5075548;28;20130;-77
2023/07/30 08:09:21;;;;;;;14.55;2.83;;;18.40;76.40;;;;;;5092153;28;20040;-76
2023/07/30 08:11:47;;;;;;;11.82;3.42;;;18.40;76.20;;;;;;5091961;28;20480;-75
2023/07/30 08:14:12;;;;;;;10.73;2.63;;;18.30;76.60;;;;;;5091608;28;20055;-77
2023/07/30 08:16:38;;;;;;;11.68;3.22;;;18.40;77.30;;;;;;5075783;28;20119;-76
2023/07/30 08:19:04;;;;;;;14.23;3.22;;;18.20;77.70;;;;;;5092088;28;20032;-76
2023/07/30 08:21:29;;;;;;;14.10;3.10;;;18.10;78.30;;;;;;5091914;28;20071;-77
2023/07/30 08:23:55;;;;;;;10.75;3.00;;;18.00;79.00;;;;;;5058499;28;20044;-76
2023/07/30 08:26:21;;;;;;;11.85;3.10;;;18.00;79.80;;;;;;5091878;28;20093;-76
2023/07/30 08:28:46;;;;;;;14.43;3.28;;;17.80;81.50;;;;;;5058325;28;20074;-76
2023/07/30 08:31:12;;;;;;;18.73;3.83;;;17.60;82.80;;;;;;5075005;28;20122;-75
2023/07/30 08:33:38;;;;;;;6.95;2.55;;;17.50;83.00;;;;;;5091601;28;20306;-75
2023/07/30 08:36:03;;;;;;;8.27;2.78;;;17.40;82.90;;;;;;5058248;28;20044;-75
2023/07/30 08:38:30;;;;;;;12.30;3.17;;;17.20;82.90;;;;;;5058317;28;20043;-75
2023/07/30 08:40:56;;;;;;;8.88;2.47;;;17.00;85.20;;;;;;5092248;28;20044;-75
2023/07/30 08:43:22;;;;;;;10.32;2.50;;;16.90;85.70;;;;;;5091938;28;20044;-75
2023/07/30 08:45:48;;;;;;;9.35;3.28;;;17.00;85.50;;;;;;5074940;28;20051;-75
2023/07/30 08:48:14;;;;;;;9.05;2.63;;;17.00;85.80;;;;;;5074752;28;20050;-75
2023/07/30 08:50:40;;;;;;;9.68;2.80;;;17.20;86.10;;;;;;5058390;28;20047;-75
2023/07/30 08:53:08;;;;;;;11.70;3.10;;;17.30;86.60;;;;;;5095638;28;20130;-75
2023/07/30 08:55:34;;;;;;;18.27;5.85;;;17.40;86.20;;;;;;5095627;28;20124;-76
2023/07/30 08:58:02;;;;;;;10.15;2.67;;;17.50;87.00;;;;;;5078787;28;20031;-75
2023/07/30 09:00:32;;;;;;;11.98;3.55;;;17.70;86.60;;;;;;5095606;28;20407;-75
2023/07/30 09:03:03;;;;;;;11.05;2.55;;;18.00;85.20;;;;;;5095507;28;20032;-75
2023/07/30 09:05:30;;;;;;;8.15;2.15;;;18.10;84.80;;;;;;5095300;28;20071;-75
2023/07/30 09:07:57;;;;;;;9.30;2.22;;;18.20;83.60;;;;;;5078369;28;20051;-76
2023/07/30 09:10:23;;;;;;;15.30;4.10;;;18.20;82.60;;;;;;5095304;28;20124;-75
2023/07/30 09:12:58;;;;;;;9.63;2.63;;;18.20;82.20;;;;;;5095343;28;20122;-75
2023/07/30 09:15:34;;;;;;;7.05;2.60;;;18.30;81.60;;;;;;5078056;28;20480;-76
2023/07/30 09:18:01;;;;;;;9.20;2.70;;;18.20;81.50;;;;;;5078037;28;20484;-75
2023/07/30 09:20:27;;;;;;;13.68;2.47;;;18.20;81.50;;;;;;5061439;28;20032;-76
2023/07/30 09:22:56;;;;;;;9.23;3.03;;;18.20;82.30;;;;;;5078207;28;20036;-75
2023/07/30 09:25:22;;;;;;;9.60;2.90;;;18.10;82.40;;;;;;5095026;28;20082;-75
2023/07/30 09:27:51;;;;;;;10.43;2.53;;;18.10;82.40;;;;;;5078146;28;20095;-74
2023/07/30 09:30:24;;;;;;;12.85;3.25;;;18.20;82.60;;;;;;5094722;28;20480;-74
2023/07/30 09:32:55;;;;;;;11.02;2.92;;;18.50;82.50;;;;;;5094914;28;20094;-75
2023/07/30 09:35:24;;;;;;;11.27;2.63;;;18.70;81.30;;;;;;5094813;28;20118;-75
2023/07/30 09:37:50;;;;;;;8.38;2.25;;;18.90;80.40;;;;;;5078119;28;20035;-76
2023/07/30 09:40:18;;;;;;;14.55;3.85;;;19.10;79.60;;;;;;5094664;28;20044;-75
2023/07/30 09:42:46;;;;;;;10.07;2.22;;;19.20;79.40;;;;;;5078049;28;20036;-74
2023/07/30 09:45:24;;;;;;;8.15;2.80;;;19.20;74.70;;;;;;5061152;28;20070;-74
2023/07/30 09:47:57;;;;;;;7.18;2.30;;;19.20;75.30;;;;;;5077948;28;20457;-74
2023/07/30 09:50:23;;;;;;;8.05;1.95;;;19.00;74.90;;;;;;5094635;28;20498;-74
2023/07/30 09:52:50;;;;;;;8.35;2.95;;;18.90;75.10;;;;;;5077989;28;20130;-75
2023/07/30 09:55:18;;;;;;;6.13;2.05;;;18.90;75.50;;;;;;5094400;28;20526;-76
2023/07/30 09:57:44;;;;;;;9.07;2.22;;;19.10;75.60;;;;;;5094602;28;20369;-76
2023/07/30 10:00:10;;;;;;;9.80;2.55;;;19.40;74.30;;;;;;5077776;28;20039;-74
2023/07/30 10:02:44;;;;;;;9.98;2.30;;;19.50;74.00;;;;;;5093557;28;20040;-75
2023/07/30 10:05:14;;;;;;;9.50;3.00;;;19.60;72.80;;;;;;5077415;28;20088;-75
2023/07/30 10:07:46;;;;;;;8.60;2.70;;;19.60;73.20;;;;;;5094140;28;20075;-75
2023/07/30 10:10:12;;;;;;;9.95;2.47;;;19.80;73.50;;;;;;5094099;28;20044;-75
2023/07/30 10:12:40;;;;;;;12.48;3.53;;;20.00;74.10;;;;;;5076747;28;20051;-76
2023/07/30 10:15:07;;;;;;;7.68;3.00;;;20.10;72.50;;;;;;5093159;28;20067;-76
2023/07/30 10:17:33;;;;;;;14.07;2.10;;;20.10;72.10;;;;;;5093941;28;20373;-76
2023/07/30 10:20:21;;;;;;;9.23;2.90;;;19.90;72.40;;;;;;5093997;28;20081;-76
2023/07/30 10:22:52;;;;;;;12.40;3.00;;;19.80;72.90;;;;;;5077547;28;20028;-75
2023/07/30 10:25:21;;;;;;;16.88;2.58;;;19.50;73.40;;;;;;5076936;28;20039;-76
2023/07/30 10:27:50;;;;;;;8.65;2.83;;;19.70;74.30;;;;;;5060599;28;20044;-75
2023/07/30 10:30:19;;;;;;;7.70;1.95;;;19.90;73.40;;;;;;5094023;28;20043;-75
2023/07/30 10:32:59;;;;;;;10.52;3.05;;;20.10;72.40;;;;;;5093702;28;20073;-75
2023/07/30 10:35:43;;;;;;;10.75;2.75;;;20.20;71.60;;;;;;5093434;28;20404;-75
2023/07/30 10:38:20;;;;;;;8.82;2.67;;;20.50;71.00;;;;;;5075615;28;20125;-75
2023/07/30 10:41:13;;;;;;;9.38;2.60;;;20.70;71.20;;;;;;5085359;28;20044;-75
2023/07/30 10:43:44;;;;;;;8.88;2.28;;;20.90;70.30;;;;;;5085802;28;20078;-75
2023/07/30 10:46:12;;;;;;;10.70;2.72;;;21.00;69.00;;;;;;5085675;28;20071;-75
2023/07/30 10:48:40;;;;;;;7.55;2.55;;;20.90;68.30;;;;;;5084056;28;20085;-75
2023/07/30 10:51:14;;;;;;;16.30;3.00;;;20.60;69.20;;;;;;5068882;28;20053;-75
2023/07/30 10:53:43;;;;;;;7.35;2.40;;;20.40;70.70;;;;;;5085067;28;20040;-75
2023/07/30 10:56:10;;;;;;;12.43;3.55;;;20.40;71.90;;;;;;5072729;28;20605;-75
2023/07/30 10:58:36;;;;;;;11.85;2.83;;;20.50;71.40;;;;;;5092514;28;20044;-75
2023/07/30 11:01:07;;;;;;;10.23;2.78;;;20.70;71.10;;;;;;5076482;28;20036;-75
2023/07/30 11:03:34;;;;;;;10.48;2.55;;;20.90;70.70;;;;;;5076701;28;20078;-75
2023/07/30 11:06:00;;;;;;;8.80;2.25;;;20.90;69.00;;;;;;5093465;28;20044;-75
2023/07/30 11:08:53;;;;;;;7.10;2.10;;;21.00;69.50;;;;;;5093071;28;20487;-75
2023/07/30 11:11:18;;;;;;;7.40;2.25;;;21.10;67.10;;;;;;5088890;28;20135;-74
2023/07/30 11:13:46;;;;;;;10.55;2.63;;;21.10;67.60;;;;;;5092785;28;20630;-75
2023/07/30 11:16:14;;;;;;;6.63;1.90;;;21.20;67.40;;;;;;5092017;28;20063;-75
2023/07/30 11:18:42;;;;;;;8.98;2.50;;;21.00;66.90;;;;;;5075889;28;20173;-77
2023/07/30 11:21:09;;;;;;;6.35;1.80;;;20.80;68.90;;;;;;5076123;28;20440;-78
2023/07/30 11:23:36;;;;;;;8.30;2.20;;;20.40;70.00;;;;;;5092832;28;20097;-77
2023/07/30 11:26:03;;;;;;;7.75;1.92;;;20.50;71.10;;;;;;5075983;28;20423;-75
2023/07/30 11:28:30;;;;;;;7.82;2.67;;;20.50;71.60;;;;;;5092653;28;20132;-78
2023/07/30 11:31:01;;;;;;;9.00;1.98;;;20.70;71.80;;;;;;5092606;28;20527;-77
2023/07/30 11:33:30;;;;;;;8.88;2.42;;;20.90;71.10;;;;;;5092834;28;20039;-78
2023/07/30 11:35:56;;;;;;;10.15;3.08;;;20.90;70.90;;;;;;5075599;28;20514;-77
2023/07/30 11:38:24;;;;;;;6.90;2.38;;;20.70;69.80;;;;;;5075375;28;20039;-78
2023/07/30 11:40:52;;;;;;;6.10;1.70;;;20.60;70.70;;;;;;5092536;28;20123;-78
2023/07/30 11:43:17;;;;;;;9.05;2.08;;;20.60;69.90;;;;;;5092391;28;20516;-76
2023/07/30 11:45:43;;;;;;;9.85;2.47;;;20.70;68.80;;;;;;5092412;28;20116;-78
2023/07/30 11:48:11;;;;;;;7.55;2.60;;;20.90;67.40;;;;;;5075444;28;20090;-77
2023/07/30 11:50:52;;;;;;;9.18;2.35;;;21.00;68.10;;;;;;5075751;28;20044;-77
2023/07/30 11:53:18;;;;;;;6.18;1.65;;;21.10;67.20;;;;;;5075359;28;20040;-78
2023/07/30 11:55:45;;;;;;;7.43;1.63;;;21.30;65.10;;;;;;5092142;28;20369;-78
2023/07/30 11:58:12;;;;;;;8.98;1.88;;;21.30;63.20;;;;;;5075604;28;20044;-77
2023/07/30 12:00:40;;;;;;;4.78;1.40;;;21.50;64.20;;;;;;5075346;28;20044;-78
2023/07/30 12:03:09;;;;;;;9.73;2.15;;;21.70;62.60;;;;;;5092207;28;20043;-78
2023/07/30 12:05:36;;;;;;;7.55;1.75;;;21.90;61.60;;;;;;5092236;28;20044;-76
2023/07/30 12:08:03;;;;;;;7.38;1.80;;;21.80;61.30;;;;;;5092297;28;20044;-76
2023/07/30 12:10:47;;;;;;;7.85;1.70;;;21.60;62.10;;;;;;5075838;28;20044;-78
2023/07/30 12:13:18;;;;;;;7.13;1.90;;;21.70;61.90;;;;;;5092077;28;20124;-77
2023/07/30 12:15:51;;;;;;;5.93;1.67;;;21.80;62.00;;;;;;5091755;28;20127;-79
2023/07/30 12:18:16;;;;;;;5.57;1.58;;;22.00;61.90;;;;;;5074797;28;20113;-77
2023/07/30 12:20:42;;;;;;;6.05;2.00;;;21.90;62.90;;;;;;5074386;28;20028;-79
2023/07/30 12:23:08;;;;;;;5.72;1.60;;;21.90;61.70;;;;;;5075049;28;20036;-78
2023/07/30 12:25:34;;;;;;;8.40;2.75;;;22.00;61.70;;;;;;5074897;28;20036;-80
2023/07/30 12:28:00;;;;;;;4.60;1.90;;;21.90;62.10;;;;;;5058378;28;20044;-78
2023/07/30 12:30:27;;;;;;;6.18;2.10;;;22.00;62.00;;;;;;5075476;28;20084;-79
2023/07/30 12:32:53;;;;;;;8.38;1.90;;;21.90;59.80;;;;;;5058634;28;20127;-80
2023/07/30 12:35:19;;;;;;;8.43;2.38;;;21.70;61.90;;;;;;5074977;28;20044;-80
2023/07/30 12:37:45;;;;;;;7.25;2.70;;;21.60;62.50;;;;;;5091817;28;20170;-80